createdAt,value
2023-01-18T00:00:34.366Z,78.10
2023-01-18T00:03:03.752Z,75.70
2023-01-18T00:05:31.929Z,73.80
2023-01-18T00:07:59.921Z,73.90
2023-01-18T00:10:27.995Z,71.50
2023-01-18T00:12:56.693Z,70.40
2023-01-18T00:15:24.961Z,70.30
2023-01-18T00:17:53.351Z,67.90
2023-01-18T00:20:24.624Z,64.40
2023-01-18T00:22:53.228Z,66.30
2023-01-18T00:25:24.221Z,65.20
2023-01-18T00:27:53.933Z,64.30
2023-01-18T00:30:24.083Z,65.20
2023-01-18T00:32:56.432Z,63.10
2023-01-18T00:35:26.638Z,66.40
2023-01-18T00:37:55.383Z,67.00
2023-01-18T00:40:25.898Z,67.40
2023-01-18T00:43:11.231Z,68.70
2023-01-18T00:45:40.981Z,68.60
2023-01-18T00:48:09.324Z,66.10
2023-01-18T00:50:39.099Z,67.70
2023-01-18T00:53:07.180Z,65.50
2023-01-18T00:55:35.179Z,69.80
2023-01-18T00:58:03.168Z,68.50
2023-01-18T01:00:32.494Z,69.90
2023-01-18T01:03:00.944Z,71.20
2023-01-18T01:05:43.789Z,70.30
2023-01-18T01:08:17.676Z,70.00
2023-01-18T01:10:46.877Z,70.90
2023-01-18T01:13:34.047Z,75.00
2023-01-18T01:16:23.750Z,73.20
2023-01-18T01:19:09.632Z,75.60
2023-01-18T01:21:55.338Z,77.30
2023-01-18T01:24:42.993Z,76.10
2023-01-18T01:27:11.661Z,73.90
2023-01-18T01:29:39.752Z,73.90
2023-01-18T01:32:07.907Z,73.10
2023-01-18T01:34:36.308Z,71.20
2023-01-18T01:37:04.761Z,72.30
2023-01-18T01:39:34.180Z,72.80
2023-01-18T01:42:02.201Z,74.20
2023-01-18T01:44:52.015Z,76.50
2023-01-18T01:47:35.870Z,80.10
2023-01-18T01:50:12.547Z,80.90
2023-01-18T01:52:44.910Z,79.30
2023-01-18T01:55:21.173Z,77.00
2023-01-18T01:57:54.214Z,77.90
2023-01-18T02:00:24.180Z,77.40
2023-01-18T02:02:55.809Z,80.50
2023-01-18T02:05:25.723Z,80.40
2023-01-18T02:07:55.160Z,84.00
2023-01-18T02:10:24.697Z,81.80
2023-01-18T02:12:54.789Z,80.60
2023-01-18T02:15:25.683Z,82.80
2023-01-18T02:18:11.298Z,82.40
2023-01-18T02:21:05.251Z,86.60
2023-01-18T02:23:36.398Z,87.70
2023-01-18T02:26:49.436Z,87.60
2023-01-18T02:29:21.958Z,89.40
2023-01-18T02:32:04.717Z,90.60
2023-01-18T02:34:40.979Z,90.50
2023-01-18T02:37:17.558Z,88.60
2023-01-18T02:39:56.136Z,90.10
2023-01-18T02:42:45.319Z,89.70
2023-01-18T02:45:39.107Z,91.60
2023-01-18T02:48:08.011Z,91.20
2023-01-18T02:50:36.212Z,92.20
2023-01-18T02:53:04.343Z,91.60
2023-01-18T02:55:39.580Z,91.10
2023-01-18T02:58:13.295Z,91.30
2023-01-18T03:00:45.882Z,90.40
2023-01-18T03:03:15.991Z,91.10
2023-01-18T03:05:47.965Z,91.70
2023-01-18T03:08:22.474Z,91.10
2023-01-18T03:11:00.645Z,89.90
2023-01-18T03:13:53.303Z,90.20
2023-01-18T03:16:25.392Z,91.90
2023-01-18T03:19:04.171Z,91.50
2023-01-18T03:21:38.910Z,92.10
2023-01-18T03:24:09.070Z,91.50
2023-01-18T03:26:41.197Z,91.20
2023-01-18T03:29:28.064Z,90.20
2023-01-18T03:32:20.015Z,91.00
2023-01-18T03:34:53.621Z,91.80
2023-01-18T03:37:25.250Z,92.90
2023-01-18T03:39:57.000Z,93.40
2023-01-18T03:42:29.133Z,94.40
2023-01-18T03:45:04.009Z,94.00
2023-01-18T03:47:33.960Z,93.60
2023-01-18T03:50:02.547Z,93.30
2023-01-18T03:52:37.949Z,93.30
2023-01-18T03:55:10.942Z,92.20
2023-01-18T03:57:45.576Z,91.20
2023-01-18T04:00:15.709Z,90.90
2023-01-18T04:02:46.802Z,90.60
2023-01-18T04:05:15.022Z,90.50
2023-01-18T04:07:43.355Z,92.00
2023-01-18T04:10:12.368Z,91.50
2023-01-18T04:12:40.427Z,91.80
2023-01-18T04:15:09.388Z,92.60
2023-01-18T04:17:37.552Z,93.80
2023-01-18T04:20:08.392Z,95.20
2023-01-18T04:22:36.418Z,95.60
2023-01-18T04:25:04.678Z,95.20
2023-01-18T04:27:32.682Z,95.40
2023-01-18T04:30:00.708Z,94.90
2023-01-18T04:32:29.515Z,94.70
2023-01-18T04:34:57.496Z,95.70
2023-01-18T04:37:30.384Z,96.60
2023-01-18T04:39:58.693Z,96.60
2023-01-18T04:42:26.876Z,97.50
2023-01-18T04:44:54.922Z,97.20
2023-01-18T04:47:23.078Z,98.50
2023-01-18T04:49:51.102Z,98.70
2023-01-18T04:52:19.385Z,97.60
2023-01-18T04:54:48.831Z,96.20
2023-01-18T04:57:17.011Z,95.70
2023-01-18T04:59:46.708Z,96.10
2023-01-18T05:02:15.834Z,95.00
2023-01-18T05:04:44.975Z,93.80
2023-01-18T05:07:13.215Z,93.10
2023-01-18T05:09:41.225Z,95.40
2023-01-18T05:12:10.641Z,96.90
2023-01-18T05:14:38.645Z,96.40
2023-01-18T05:17:07.353Z,97.40
2023-01-18T05:19:35.506Z,98.00
2023-01-18T05:22:03.508Z,97.10
2023-01-18T05:24:31.485Z,97.50
2023-01-18T05:26:59.697Z,98.00
2023-01-18T05:29:29.101Z,97.80
2023-01-18T05:31:57.179Z,97.40
2023-01-18T05:34:25.222Z,97.30
2023-01-18T05:36:53.231Z,97.40
2023-01-18T05:39:21.246Z,98.00
2023-01-18T05:41:49.280Z,98.50
2023-01-18T05:44:17.369Z,98.00
2023-01-18T05:46:46.779Z,97.30
2023-01-18T05:49:14.898Z,98.40
2023-01-18T05:51:42.904Z,99.60
2023-01-18T05:54:11.921Z,99.50
2023-01-18T05:56:40.034Z,99.70
2023-01-18T05:59:08.021Z,99.40
2023-01-18T06:01:36.187Z,98.60
2023-01-18T06:04:05.759Z,98.00
2023-01-18T06:06:34.794Z,98.40
2023-01-18T06:09:03.361Z,97.90
2023-01-18T06:11:31.355Z,97.10
2023-01-18T06:13:59.391Z,95.90
2023-01-18T06:16:27.668Z,96.00
2023-01-18T06:18:55.883Z,96.30
2023-01-18T06:21:25.285Z,95.10
2023-01-18T06:23:53.294Z,95.10
2023-01-18T06:26:21.323Z,94.70
2023-01-18T06:28:49.350Z,96.30
2023-01-18T06:31:17.480Z,96.70
2023-01-18T06:33:45.864Z,97.10
2023-01-18T06:36:13.851Z,96.60
2023-01-18T06:38:43.287Z,97.60
2023-01-18T06:41:11.342Z,97.90
2023-01-18T06:43:39.734Z,98.00
2023-01-18T06:46:09.615Z,97.00
2023-01-18T06:48:38.547Z,97.50
2023-01-18T06:51:06.869Z,96.60
2023-01-18T06:53:37.584Z,95.80
2023-01-18T06:56:10.265Z,96.00
2023-01-18T06:58:38.675Z,96.70
2023-01-18T07:01:07.701Z,96.10
2023-01-18T07:03:35.926Z,96.20
2023-01-18T07:06:05.816Z,95.60
2023-01-18T07:08:34.259Z,95.60
2023-01-18T07:11:07.878Z,95.20
2023-01-18T07:13:39.838Z,94.60
2023-01-18T07:16:09.514Z,93.10
2023-01-18T07:18:37.563Z,92.30
2023-01-18T07:21:08.049Z,91.40
2023-01-18T07:23:37.554Z,90.00
2023-01-18T07:26:07.521Z,87.10
2023-01-18T07:28:36.369Z,83.40
2023-01-18T07:31:06.164Z,84.10
2023-01-18T07:33:34.238Z,80.50
2023-01-18T07:36:02.235Z,77.30
2023-01-18T07:38:30.959Z,73.20
2023-01-18T07:41:02.055Z,75.40
2023-01-18T07:43:32.493Z,74.30
2023-01-18T07:46:01.019Z,72.20
2023-01-18T07:48:29.799Z,72.00
2023-01-18T07:50:59.722Z,72.00
2023-01-18T07:53:29.154Z,69.80
2023-01-18T07:56:00.696Z,64.70
2023-01-18T07:58:29.348Z,63.80
2023-01-18T08:01:04.248Z,63.20
2023-01-18T08:03:32.256Z,59.50
2023-01-18T08:06:00.703Z,58.20
2023-01-18T08:08:29.812Z,53.00
2023-01-18T08:10:58.782Z,52.00
2023-01-18T08:13:27.404Z,43.70
2023-01-18T08:15:55.857Z,41.90
2023-01-18T08:18:25.265Z,42.90
2023-01-18T08:20:55.151Z,42.10
2023-01-18T08:23:23.405Z,41.00
2023-01-18T08:25:51.487Z,43.10
2023-01-18T08:28:19.658Z,40.30
2023-01-18T08:30:49.384Z,38.70
2023-01-18T08:33:17.619Z,46.00
2023-01-18T08:35:48.423Z,38.90
2023-01-18T08:38:17.812Z,38.30
2023-01-18T08:40:45.808Z,37.90
2023-01-18T08:43:13.832Z,26.30
2023-01-18T08:45:41.845Z,27.20
2023-01-18T08:48:12.370Z,30.00
2023-01-18T08:50:40.344Z,26.60
2023-01-18T08:53:09.804Z,23.80
2023-01-18T08:55:38.265Z,19.40
2023-01-18T08:58:06.402Z,19.20
2023-01-18T09:00:34.488Z,13.20
2023-01-18T09:03:03.352Z,14.60
2023-01-18T09:05:31.629Z,12.70
2023-01-18T09:07:59.597Z,8.60
2023-01-18T09:10:29.006Z,7.70
2023-01-18T09:12:57.577Z,7.50
2023-01-18T09:15:26.956Z,8.20
2023-01-18T09:17:54.964Z,11.80
2023-01-18T09:20:23.018Z,11.90
2023-01-18T09:22:51.027Z,13.70
2023-01-18T09:25:20.657Z,10.50
2023-01-18T09:27:49.853Z,11.50
2023-01-18T09:30:18.207Z,12.20
2023-01-18T09:32:46.402Z,7.60
2023-01-18T09:35:18.031Z,1.00
2023-01-18T09:37:46.272Z,1.00
2023-01-18T09:40:17.879Z,1.00
2023-01-18T09:42:46.775Z,1.00
2023-01-18T09:45:27.029Z,1.00
2023-01-18T09:48:01.446Z,1.00
2023-01-18T09:50:30.127Z,1.00
2023-01-18T09:53:07.740Z,1.00
2023-01-18T09:55:48.299Z,1.00
2023-01-18T09:58:37.275Z,1.00
2023-01-18T10:01:13.045Z,1.00
2023-01-18T10:03:50.324Z,1.00
2023-01-18T10:06:25.028Z,1.00
2023-01-18T10:08:58.077Z,1.00
2023-01-18T10:11:36.547Z,1.00
2023-01-18T10:14:09.160Z,1.00
2023-01-18T10:16:38.903Z,1.00
2023-01-18T10:19:23.101Z,1.00
2023-01-18T10:21:56.223Z,1.00
2023-01-18T10:24:32.451Z,1.00
2023-01-18T10:27:10.925Z,1.00
2023-01-18T10:29:54.129Z,1.00
2023-01-18T10:32:27.458Z,1.00
2023-01-18T10:34:55.961Z,1.00
2023-01-18T10:37:33.388Z,1.00
2023-01-18T10:40:03.161Z,1.00
2023-01-18T10:42:39.635Z,1.00
2023-01-18T10:45:20.036Z,1.00
2023-01-18T10:47:49.631Z,1.00
2023-01-18T10:50:18.478Z,1.00
2023-01-18T10:52:46.664Z,1.00
2023-01-18T10:55:17.617Z,1.00
2023-01-18T10:57:48.611Z,1.00
2023-01-18T11:00:22.945Z,1.00
2023-01-18T11:02:54.395Z,1.00
2023-01-18T11:05:29.083Z,1.00
2023-01-18T11:08:15.098Z,1.00
2023-01-18T11:10:44.515Z,1.00
2023-01-18T11:13:27.363Z,1.00
2023-01-18T11:16:07.527Z,1.00
2023-01-18T11:18:36.956Z,1.00
2023-01-18T11:21:11.095Z,1.00
2023-01-18T11:23:41.050Z,1.00
2023-01-18T11:26:15.903Z,1.00
2023-01-18T11:28:49.529Z,1.00
2023-01-18T11:31:22.263Z,1.00
2023-01-18T11:33:54.760Z,1.00
2023-01-18T11:36:35.241Z,1.00
2023-01-18T11:39:19.126Z,1.00
2023-01-18T11:41:48.718Z,1.00
2023-01-18T11:44:19.634Z,1.00
2023-01-18T11:46:50.915Z,1.00
2023-01-18T11:49:46.567Z,1.00
2023-01-18T11:52:22.091Z,1.00
2023-01-18T11:54:56.219Z,1.00
2023-01-18T11:57:24.347Z,1.00
2023-01-18T11:59:52.381Z,1.00
2023-01-18T12:02:45.402Z,1.00
2023-01-18T12:05:29.465Z,1.00
2023-01-18T12:08:18.053Z,1.00
2023-01-18T12:10:55.063Z,1.00
2023-01-18T12:13:36.356Z,1.00
2023-01-18T12:16:20.286Z,1.00
2023-01-18T12:19:20.386Z,1.00
2023-01-18T12:22:04.814Z,1.00
2023-01-18T12:24:49.320Z,1.00
2023-01-18T12:27:26.420Z,1.00
2023-01-18T12:30:19.605Z,1.00
2023-01-18T12:33:04.683Z,99.90
2023-01-18T12:35:47.352Z,1.00
2023-01-18T12:38:23.052Z,1.00
2023-01-18T12:41:18.564Z,1.00
2023-01-18T12:43:59.439Z,1.00
2023-01-18T12:46:30.442Z,1.00
2023-01-18T12:49:03.785Z,99.90
2023-01-18T12:51:36.605Z,99.90
2023-01-18T12:54:14.269Z,99.90
2023-01-18T12:56:46.090Z,99.90
2023-01-18T12:59:20.155Z,99.90
2023-01-18T13:01:52.731Z,99.90
2023-01-18T13:04:24.448Z,99.90
2023-01-18T13:06:55.922Z,99.90
2023-01-18T13:09:33.196Z,99.90
2023-01-18T13:12:02.293Z,99.90
2023-01-18T13:14:38.037Z,99.90
2023-01-18T13:17:12.574Z,99.90
2023-01-18T13:19:44.079Z,99.90
2023-01-18T13:22:23.117Z,99.90
2023-01-18T13:25:17.905Z,99.90
2023-01-18T13:27:59.101Z,99.90
2023-01-18T13:30:27.997Z,99.90
2023-01-18T13:32:56.221Z,99.90
2023-01-18T13:35:32.751Z,99.90
2023-01-18T13:38:02.725Z,99.90
2023-01-18T13:40:38.598Z,99.90
2023-01-18T13:43:27.170Z,99.90
2023-01-18T13:46:04.389Z,99.90
2023-01-18T13:48:46.767Z,99.90
2023-01-18T13:51:54.023Z,99.90
2023-01-18T13:55:02.350Z,99.90
2023-01-18T13:57:33.642Z,99.90
2023-01-18T14:00:02.416Z,99.90
2023-01-18T14:02:35.761Z,99.90
2023-01-18T14:05:08.351Z,99.90
2023-01-18T14:07:43.841Z,99.90
2023-01-18T14:10:26.214Z,99.90
2023-01-18T14:12:57.559Z,99.90
2023-01-18T14:15:37.957Z,99.90
2023-01-18T14:18:15.159Z,99.90
2023-01-18T14:21:09.331Z,99.90
2023-01-18T14:23:56.540Z,99.90
2023-01-18T14:26:29.672Z,1.00
2023-01-18T14:29:01.941Z,99.90
2023-01-18T14:31:34.050Z,99.90
2023-01-18T14:34:25.662Z,99.90
2023-01-18T14:36:53.745Z,99.90
2023-01-18T14:39:22.678Z,99.90
2023-01-18T14:41:55.139Z,1.00
2023-01-18T14:44:27.927Z,1.00
2023-01-18T14:46:58.481Z,1.00
2023-01-18T14:49:29.781Z,1.00
2023-01-18T14:51:59.756Z,1.00
2023-01-18T14:54:27.995Z,1.00
2023-01-18T14:57:02.423Z,1.00
2023-01-18T14:59:35.897Z,1.00
2023-01-18T15:02:14.862Z,1.00
2023-01-18T15:04:45.543Z,1.00
2023-01-18T15:07:19.075Z,1.00
2023-01-18T15:09:48.040Z,1.00
2023-01-18T15:12:20.537Z,1.00
2023-01-18T15:14:51.503Z,1.00
2023-01-18T15:17:23.346Z,1.00
2023-01-18T15:19:54.344Z,1.00
2023-01-18T15:22:29.314Z,1.00
2023-01-18T15:24:59.772Z,1.00
2023-01-18T15:27:30.456Z,1.00
2023-01-18T15:30:02.067Z,1.00
2023-01-18T15:32:32.648Z,1.00
2023-01-18T15:35:02.359Z,1.00
2023-01-18T15:37:33.133Z,1.00
2023-01-18T15:40:02.443Z,1.00
2023-01-18T15:42:33.594Z,1.00
2023-01-18T15:45:03.120Z,1.00
2023-01-18T15:47:37.676Z,1.00
2023-01-18T15:50:16.638Z,1.00
2023-01-18T15:52:47.597Z,1.00
2023-01-18T15:55:24.045Z,1.00
2023-01-18T15:57:58.543Z,1.00
2023-01-18T16:00:31.849Z,1.00
2023-01-18T16:02:59.947Z,1.00
2023-01-18T16:05:28.142Z,1.00
2023-01-18T16:08:18.376Z,1.00
2023-01-18T16:10:52.262Z,1.00
2023-01-18T16:13:34.771Z,1.00
2023-01-18T16:16:14.093Z,1.00
2023-01-18T16:18:43.875Z,1.00
2023-01-18T16:21:13.683Z,1.00
2023-01-18T16:23:45.685Z,1.00
2023-01-18T16:26:15.689Z,1.00
2023-01-18T16:28:43.759Z,1.00
2023-01-18T16:31:13.365Z,1.00
2023-01-18T16:33:41.207Z,1.00
2023-01-18T16:36:18.851Z,1.00
2023-01-18T16:38:47.276Z,1.00
2023-01-18T16:41:16.915Z,1.00
2023-01-18T16:43:45.080Z,1.00
2023-01-18T16:46:14.613Z,1.00
2023-01-18T16:48:42.437Z,1.00
2023-01-18T16:51:18.536Z,1.00
2023-01-18T16:53:48.189Z,1.00
2023-01-18T16:56:16.361Z,1.00
2023-01-18T16:58:44.646Z,1.00
2023-01-18T17:01:16.038Z,1.00
2023-01-18T17:03:44.876Z,1.00
2023-01-18T17:06:17.664Z,1.00
2023-01-18T17:08:46.444Z,1.00
2023-01-18T17:11:14.988Z,1.00
2023-01-18T17:13:44.778Z,1.00
2023-01-18T17:16:17.821Z,1.00
2023-01-18T17:18:47.981Z,1.00
2023-01-18T17:21:16.229Z,1.00
2023-01-18T17:23:44.979Z,1.00
2023-01-18T17:26:15.738Z,1.00
2023-01-18T17:28:43.964Z,1.00
2023-01-18T17:31:11.955Z,1.00
2023-01-18T17:33:42.980Z,1.00
2023-01-18T17:36:11.167Z,1.00
2023-01-18T17:38:39.181Z,1.00
2023-01-18T17:41:11.346Z,1.00
2023-01-18T17:43:41.435Z,1.00
2023-01-18T17:46:10.395Z,1.00
2023-01-18T17:48:39.371Z,1.00
2023-01-18T17:51:09.357Z,1.00
2023-01-18T17:53:37.831Z,1.00
2023-01-18T17:56:08.549Z,1.00
2023-01-18T17:58:36.693Z,1.00
2023-01-18T18:01:10.315Z,1.00
2023-01-18T18:03:38.686Z,1.00
2023-01-18T18:06:09.256Z,1.00
2023-01-18T18:08:39.414Z,1.00
2023-01-18T18:11:08.812Z,1.00
2023-01-18T18:13:37.289Z,1.00
2023-01-18T18:16:06.665Z,1.00
2023-01-18T18:18:35.736Z,1.00
2023-01-18T18:21:06.244Z,1.00
2023-01-18T18:23:36.653Z,1.00
2023-01-18T18:26:05.499Z,1.00
2023-01-18T18:28:34.008Z,1.00
2023-01-18T18:31:02.192Z,1.00
2023-01-18T18:33:30.718Z,1.00
2023-01-18T18:35:59.034Z,1.00
2023-01-18T18:38:27.654Z,1.00
2023-01-18T18:41:04.221Z,1.00
2023-01-18T18:43:32.492Z,1.00
2023-01-18T18:46:00.506Z,1.00
2023-01-18T18:48:28.579Z,1.00
2023-01-18T18:50:56.637Z,1.00
2023-01-18T18:53:36.997Z,1.00
2023-01-18T18:56:09.562Z,1.00
2023-01-18T18:58:38.285Z,1.00
2023-01-18T19:01:07.289Z,1.00
2023-01-18T19:03:36.012Z,1.00
2023-01-18T19:06:04.017Z,1.00
2023-01-18T19:08:32.069Z,1.00
2023-01-18T19:11:00.129Z,1.00
2023-01-18T19:13:29.623Z,1.00
2023-01-18T19:15:57.801Z,1.00
2023-01-18T19:18:25.901Z,1.00
2023-01-18T19:20:53.954Z,1.00
2023-01-18T19:23:21.950Z,1.00
2023-01-18T19:25:50.049Z,1.00
2023-01-18T19:28:18.544Z,1.00
2023-01-18T19:30:47.936Z,1.00
2023-01-18T19:33:16.556Z,1.00
2023-01-18T19:35:47.283Z,1.00
2023-01-18T19:38:16.959Z,1.00
2023-01-18T19:40:45.001Z,1.00
2023-01-18T19:43:13.067Z,1.00
2023-01-18T19:45:41.117Z,1.00
2023-01-18T19:48:10.511Z,1.00
2023-01-18T19:50:38.529Z,1.00
2023-01-18T19:53:06.595Z,1.00
2023-01-18T19:55:36.353Z,1.00
2023-01-18T19:58:04.430Z,1.00
2023-01-18T20:00:32.519Z,1.00
2023-01-18T20:03:00.946Z,1.00
2023-01-18T20:05:30.552Z,1.00
2023-01-18T20:07:58.531Z,1.00
2023-01-18T20:10:26.516Z,1.00
2023-01-18T20:12:54.559Z,1.00
2023-01-18T20:15:23.093Z,1.00
2023-01-18T20:17:51.217Z,1.00
2023-01-18T20:20:31.371Z,1.00
2023-01-18T20:23:04.296Z,1.00
2023-01-18T20:25:33.245Z,1.00
2023-01-18T20:28:01.349Z,1.00
2023-01-18T20:30:29.416Z,1.00
2023-01-18T20:32:58.107Z,1.00
2023-01-18T20:35:27.450Z,1.00
2023-01-18T20:37:55.559Z,1.00
2023-01-18T20:40:24.942Z,1.00
2023-01-18T20:42:53.144Z,1.00
2023-01-18T20:45:21.156Z,1.00
2023-01-18T20:47:49.263Z,1.00
2023-01-18T20:50:17.890Z,1.00
2023-01-18T20:52:46.425Z,1.00
2023-01-18T20:55:14.809Z,1.00
2023-01-18T20:57:44.300Z,1.00
2023-01-18T21:00:13.792Z,1.00
2023-01-18T21:02:41.951Z,1.00
2023-01-18T21:05:10.493Z,1.00
2023-01-18T21:07:40.738Z,1.00
2023-01-18T21:10:10.877Z,1.00
2023-01-18T21:12:38.912Z,1.00
2023-01-18T21:15:09.882Z,1.00
2023-01-18T21:17:37.942Z,1.00
2023-01-18T21:20:06.765Z,1.00
2023-01-18T21:22:34.758Z,1.00
2023-01-18T21:25:02.791Z,1.00
2023-01-18T21:27:33.145Z,1.00
2023-01-18T21:30:01.214Z,1.00
2023-01-18T21:32:30.598Z,1.00
2023-01-18T21:34:58.597Z,1.00
2023-01-18T21:37:27.747Z,1.00
2023-01-18T21:39:58.218Z,1.00
2023-01-18T21:42:43.873Z,1.00
2023-01-18T21:45:30.408Z,1.00
2023-01-18T21:48:01.039Z,1.00
2023-01-18T21:50:46.546Z,1.00
2023-01-18T21:53:33.153Z,1.00
2023-01-18T21:56:01.304Z,1.00
2023-01-18T21:58:46.701Z,1.00
2023-01-18T22:01:17.768Z,1.00
2023-01-18T22:04:04.904Z,1.00
2023-01-18T22:06:32.978Z,1.00
2023-01-18T22:09:01.153Z,1.00
2023-01-18T22:11:29.174Z,1.00
2023-01-18T22:13:57.279Z,1.00
2023-01-18T22:16:30.255Z,1.00
2023-01-18T22:19:01.211Z,1.00
2023-01-18T22:21:30.013Z,1.00
2023-01-18T22:23:58.052Z,1.00
2023-01-18T22:26:28.197Z,1.00
2023-01-18T22:28:56.293Z,1.00
2023-01-18T22:31:24.704Z,1.00
2023-01-18T22:33:53.068Z,1.00
2023-01-18T22:36:22.485Z,1.00
2023-01-18T22:38:50.475Z,1.00
2023-01-18T22:41:20.211Z,1.00
2023-01-18T22:43:48.320Z,1.00
2023-01-18T22:46:18.830Z,1.00
2023-01-18T22:48:47.847Z,1.00
2023-01-18T22:51:17.893Z,1.00
2023-01-18T22:53:47.908Z,1.00
2023-01-18T22:56:18.979Z,1.00
2023-01-18T22:58:47.222Z,1.00
2023-01-18T23:01:18.085Z,1.00
2023-01-18T23:03:46.367Z,1.00
2023-01-18T23:06:14.898Z,1.00
2023-01-18T23:08:46.011Z,1.00
2023-01-18T23:11:17.415Z,1.00
2023-01-18T23:14:09.075Z,1.00
2023-01-18T23:16:55.644Z,1.00
2023-01-18T23:19:25.034Z,1.00
2023-01-18T23:21:54.406Z,1.00
2023-01-18T23:24:22.671Z,1.00
2023-01-18T23:26:52.289Z,1.00
2023-01-18T23:29:21.216Z,1.00
2023-01-18T23:31:49.271Z,1.00
2023-01-18T23:34:17.485Z,1.00
2023-01-18T23:36:45.527Z,1.00
2023-01-18T23:39:31.050Z,1.00
2023-01-18T23:42:17.846Z,1.00
2023-01-18T23:45:03.478Z,1.00
2023-01-18T23:47:49.037Z,1.00
2023-01-18T23:50:34.929Z,1.00
2023-01-18T23:53:21.114Z,1.00
2023-01-18T23:55:52.381Z,1.00
2023-01-18T23:58:21.758Z,1.00
